KHDC

Hammond Northshore Regional Airport

Hammond, Louisiana, USA
METAR KHDC 151335Z AUTO 01008KT 10SM SCT120 07/02 A3018 RMK AO2
Observed Flight Rules
Dec-15 @ 13:35 UTC (33 minutes ago) Visual Flight Rules
Wind Visibility Clouds
10° at 8 knots 10 miles
  • Scattered at 12,000' AGL
Temperatures Readings
Current 7°C / 45°F
Dewpoint 2°C / 36°F
Humidity 71%
Altimeter 30.18" Hg
Pressure 1022 hPa
Elevation 13
METAR KHDC 151335Z AUTO 01008KT 10SM SCT120 07/02 A3018 RMK AO2
Observed Flight Rules
Dec-15 @ 13:35 UTC
(33 minutes ago)
VFR
Wind Visibility
10° at 8 knots 10 miles
Clouds
  • Scattered at 12,000' AGL
Temperature Dewpoint
7°C / 45°F 2°C / 36°F
Humidity Altimeter Pressure
71% 30.18" Hg 1022 hPa